Weather

DAILY 7 DAY TOTAL
onrain

Note: Some stations are located near irrigated fields and may also report irrigation

Alliston Mount Forest Blyth Guelph Grand Bend Strathroy Woodstock Belmont Simcoe Leamington Chatham West Lorne






Chatham WIN - Historical Weather Data
Date Max Temp (°C) Min Temp (°C) Avg Temp (°C) Rain (mm) 7Day Rain(mm) Total Rain(mm) Avg RH (%)
5/27/2020 28.0 17.6 22.9 0.0 0.6 72.6 79.0
5/26/2020 30.8 17.4 24.4 0.0 0.6 72.6 77.7
5/25/2020 29.8 18.3 24.4 0.0 9.4 72.6 79.7
5/24/2020 28.5 13.9 21.5 0.0 33.4 72.6 84.1
5/23/2020 21.9 13.6 17.0 0.0 37.8 72.6 93.8
5/22/2020 19.7 11.3 15.6 0.6 37.8 72.6 94.9
5/21/2020 20.9 9.2 15.0 0.0 49.0 72.0 71.4
5/20/2020 18.3 11.0 14.4 0.0 62.6 72.0 62.3
5/19/2020 20.5 11.6 15.6 8.8 62.6 72.0 85.4
5/18/2020 14.5 12.4 13.5 24.0 53.8 63.2 99.9
5/17/2020 16.6 12.3 14.2 4.4 35.0 39.2 85.3
5/16/2020 19.0 10.4 14.6 0.0 33.4 34.8 90.1
5/15/2020 22.1 12.6 16.5 11.8 33.4 34.8 97.3
5/14/2020 16.2 4.4 10.9 13.6 21.6 23.0 86.4
5/13/2020 12.3 -3.6 5.8 0.0 8.0 9.4 65.1
5/12/2020 13.8 -1.3 6.8 0.0 8.0 9.4 60.3
5/11/2020 7.5 0.2 4.0 5.2 8.0 9.4 86.7
5/10/2020 14.4 2.1 8.8 2.8 2.8 4.2 68.4
5/9/2020 9.5 -1.7 3.8 0.0 0.0 1.4 55.6
5/8/2020 5.3 -1.4 2.8 0.0 0.0 1.4 65.3
5/7/2020 17.2 0.6 8.7 0.0 1.4 1.4 55.9
5/6/2020 14.0 2.9 8.3 0.0 3.6 1.4 53.3
5/5/2020 12.6 -0.4 5.6 0.0 11.0 1.4 63.5
5/4/2020 11.2 3.2 7.0 0.0 11.6 1.4 71.3
5/3/2020 22.7 7.5 16.8 0.0 11.8 1.4 61.5
5/2/2020 21.6 6.2 15.0 0.0 12.6 1.4 72.4
5/1/2020 14.8 5.8 9.3 1.4 12.6 1.4 81.6